Norma, New Jersey
Current Conditions -  °F | °C
As of 3:54 PM on Tuesday 21 Oct 2014 (Local Time) from KMIV Reporting Station
Scattered Clouds Scattered Clouds  
Wind Chill: 70°   Ceiling: Unl
Heat Index: 70°   Visibility: 10mi
Dew Point: 47°   Wind: 5mph
Humidity: 44%   Direction: 290°WNW
Pressure: 29.8"   Gusts: NA
Location:  39.5°N, 75.09°W
Report Text: KMIV 211954Z AUTO 29004KT 10SM SCT055 21/08 A2980 RMK AO2 SLP089 T02110083
Loading
Personal Weather Stations






























Interactive Weather Map
Tropical Storm Tracking
New forecast layout! Learn more

10-Day Weather Forecast

Advertisements
Track Severe Weather on mobile